»·PEaware :: N326MC KCOS-KABQ

N326MC :: KCOS-KABQ

FLIGHT INFORMATION

Flight Status: Arrived
Operator: Privately registered:
United States
More flights under this callsign
Pilot: Anonymous 5456 (5456)
Aircraft: BOEING 737-200
(B732)
More flights by this aircraft type
Origin: KCOS City Of Colorado Springs Mun
United States
Destination: KABQ Albuquerque Intl Sunport
United States
More flights between these airports :: More routes between these airports
Route: +COS5 ALS J13 FRIHO FRIHO4
File this flight plan on PilotEdge
Remarks:
Altitude:
(Current/Filed)
32,000ft
Speed:
(Current/Filed)
480kts
Departed: 17-Jan-18 03:10 PM
Arrived: 17-Jan-18 04:00 PM
Distance/Time
Traveled:
244nm/0:50
Distance/Time
To Go:
Arrived

Flight Plot

Page will automatically refresh every two minutes.

Flight plan parsing failed; only flown route is shown


Map Options




Map Legend


Flown Route
Filed Route
Departure Airport
Arrival Airport
Navaid (VOR, NDB)
Fix

Horizontal Profiles

Position Reports

Time Latitude Longitude Heading Altitude Ground
Speed
17-Jan-18 14:56 38.808861 -104.720102 179 6209ft 0kts
17-Jan-18 14:57 38.808861 -104.720102 179 6209ft 0kts
17-Jan-18 14:58 38.808861 -104.720102 179 6209ft 0kts
17-Jan-18 14:59 38.808861 -104.720102 179 6209ft 0kts
17-Jan-18 15:00 38.808861 -104.720102 179 6209ft 0kts
17-Jan-18 15:01 38.808861 -104.720102 179 6209ft 0kts
17-Jan-18 15:02 38.808861 -104.720102 179 6209ft 0kts
17-Jan-18 15:03 38.808861 -104.720102 179 6209ft 0kts
17-Jan-18 15:04 38.808861 -104.720102 179 6209ft 0kts
17-Jan-18 15:05 38.808861 -104.720102 178 6209ft 0kts
17-Jan-18 15:06 38.808861 -104.720102 179 6209ft 0kts
17-Jan-18 15:07 38.808861 -104.720102 179 6209ft 0kts
17-Jan-18 15:08 38.808861 -104.720102 179 6209ft 0kts
17-Jan-18 15:09 38.808861 -104.720102 179 6209ft 0kts
17-Jan-18 15:10 38.808832 -104.720101 179 6209ft 2kts
17-Jan-18 15:11 38.806217 -104.718947 88 6209ft 9kts
17-Jan-18 15:12 38.803841 -104.717304 179 6209ft 12kts
17-Jan-18 15:13 38.800668 -104.717318 179 6209ft 10kts
17-Jan-18 15:14 38.797731 -104.717312 179 6209ft 11kts
17-Jan-18 15:15 38.794080 -104.717175 136 6209ft 10kts
17-Jan-18 15:16 38.801495 -104.715917 360 6209ft 107kts
17-Jan-18 15:17 38.846646 -104.717193 16 7647ft 189kts
17-Jan-18 15:18 38.873827 -104.657482 82 10131ft 212kts
17-Jan-18 15:19 38.872933 -104.572445 89 11455ft 286kts
17-Jan-18 15:20 38.823265 -104.500862 180 13820ft 312kts
17-Jan-18 15:21 38.761171 -104.508663 186 15587ft 320kts
17-Jan-18 15:22 38.666431 -104.522306 186 16778ft 362kts
17-Jan-18 15:23 38.581306 -104.578989 226 18748ft 366kts
17-Jan-18 15:24 38.505119 -104.665910 220 20636ft 376kts
17-Jan-18 15:25 38.423722 -104.749508 219 22302ft 385kts
17-Jan-18 15:26 38.340025 -104.834137 219 23774ft 392kts
17-Jan-18 15:27 38.255399 -104.919323 219 25086ft 399kts
17-Jan-18 15:28 38.168718 -105.006305 219 26293ft 404kts
17-Jan-18 15:29 38.080612 -105.094437 219 27395ft 408kts
17-Jan-18 15:30 37.992584 -105.182213 218 28325ft 412kts
17-Jan-18 15:31 37.902158 -105.272085 218 29147ft 417kts
17-Jan-18 15:32 37.815776 -105.357667 218 29850ft 420kts
17-Jan-18 15:33 37.724040 -105.448275 218 30397ft 424kts
17-Jan-18 15:34 37.630303 -105.540556 218 30557ft 433kts
17-Jan-18 15:35 37.534707 -105.634358 218 30577ft 443kts
17-Jan-18 15:36 37.440252 -105.726727 218 30592ft 450kts
17-Jan-18 15:37 37.338627 -105.816802 203 30386ft 462kts
17-Jan-18 15:38 37.219355 -105.873366 200 30365ft 467kts
17-Jan-18 15:39 37.097203 -105.928017 200 30364ft 470kts
17-Jan-18 15:40 36.975533 -105.982126 198 30367ft 472kts
17-Jan-18 15:41 36.857190 -106.034457 198 30370ft 473kts
17-Jan-18 15:42 36.734467 -106.088600 198 29280ft 465kts
17-Jan-18 15:43 36.615091 -106.141102 198 27633ft 445kts
17-Jan-18 15:44 36.502058 -106.190636 197 26273ft 426kts
17-Jan-18 15:45 36.391361 -106.239000 197 24532ft 419kts
17-Jan-18 15:46 36.282498 -106.286423 197 22847ft 414kts
17-Jan-18 15:47 36.175426 -106.332931 197 21225ft 409kts
17-Jan-18 15:48 36.070000 -106.378593 198 19956ft 396kts
17-Jan-18 15:49 35.966905 -106.423098 198 18439ft 395kts
17-Jan-18 15:50 35.866395 -106.466375 198 16939ft 395kts
17-Jan-18 15:51 35.763830 -106.510418 198 15468ft 393kts
17-Jan-18 15:52 35.663729 -106.553307 198 14989ft 379kts
17-Jan-18 15:53 35.563577 -106.596092 198 14999ft 394kts
17-Jan-18 15:54 35.459496 -106.640428 198 15003ft 405kts
17-Jan-18 15:55 35.355764 -106.684499 197 15001ft 412kts
17-Jan-18 15:56 35.248817 -106.729832 197 14974ft 409kts
17-Jan-18 15:57 35.155161 -106.768293 197 13367ft 334kts
17-Jan-18 15:58 35.069347 -106.802535 197 11419ft 330kts
17-Jan-18 15:59 34.991769 -106.851818 209 9372ft 298kts
17-Jan-18 16:00 34.921855 -106.876397 148 7987ft 246kts
17-Jan-18 16:01 34.914534 -106.807902 69 7996ft 217kts
17-Jan-18 16:02 34.933248 -106.741490 61 7891ft 209kts
17-Jan-18 16:03 34.973036 -106.690088 43 6739ft 198kts
17-Jan-18 16:04 35.003651 -106.653079 43 5898ft 137kts
17-Jan-18 16:05 35.029490 -106.621872 44 5363ft 96kts
17-Jan-18 16:06 35.036317 -106.615988 278 5363ft 7kts
17-Jan-18 16:07 35.036987 -106.616723 343 5363ft 0kts
17-Jan-18 16:08 35.036987 -106.616723 343 5363ft 0kts

Navigation Log

Ident Type
Flight plan parsing failed, navigation log unavailable